Time;durP1;ratioP1;P1;durP2;ratioP2;P2;SDS_P1;SDS_P2;PMS_P1;PMS_P2;Temp;Humidity;BMP_temperature;BMP_pressure;BME280_temperature;BME280_humidity;BME280_pressure;Samples;Min_cycle;Max_cycle;Signal;HPM_P1;HPM_P2
2022/04/04 04:01:27;;;;;;;3.20;2.97;;;2.90;99.90;;;;;;5458279;23;20230;-66
2022/04/04 04:03:53;;;;;;;2.88;2.75;;;3.00;99.90;;;;;;4910300;29;20574;-66
2022/04/04 04:06:20;;;;;;;3.28;2.95;;;3.00;99.90;;;;;;4916718;29;20202;-67
2022/04/04 04:08:48;;;;;;;3.45;2.70;;;3.00;99.90;;;;;;4917362;29;20206;-67
2022/04/04 04:11:17;;;;;;;3.95;3.55;;;3.00;99.90;;;;;;4916758;29;20259;-67
2022/04/04 04:13:45;;;;;;;3.33;3.08;;;3.00;99.90;;;;;;4916152;29;20222;-66
2022/04/04 04:16:13;;;;;;;3.90;3.50;;;3.00;99.90;;;;;;4917757;29;20270;-66
2022/04/04 04:18:41;;;;;;;3.33;3.20;;;3.00;99.90;;;;;;4916554;29;20207;-66
2022/04/04 04:21:10;;;;;;;3.13;2.78;;;3.10;99.90;;;;;;4915885;29;20257;-67
2022/04/04 04:23:37;;;;;;;2.85;2.65;;;3.10;99.90;;;;;;4916559;29;20216;-67
2022/04/04 04:26:04;;;;;;;3.17;3.05;;;3.10;99.90;;;;;;4916912;29;20269;-67
2022/04/04 04:28:32;;;;;;;4.18;3.75;;;3.10;99.90;;;;;;4910766;29;20210;-65
2022/04/04 04:30:59;;;;;;;13.40;6.60;;;3.10;99.90;;;;;;4913495;29;20226;-67
2022/04/04 04:33:25;;;;;;;4.57;4.18;;;3.10;99.90;;;;;;4916450;29;20251;-68
2022/04/04 04:35:54;;;;;;;3.80;3.35;;;3.10;99.90;;;;;;4915245;29;20222;-68
2022/04/04 04:38:20;;;;;;;3.33;3.13;;;3.10;99.90;;;;;;4916300;29;20207;-67
2022/04/04 04:40:47;;;;;;;3.45;3.25;;;3.10;99.90;;;;;;4915005;29;20223;-67
2022/04/04 04:43:14;;;;;;;2.55;2.40;;;3.20;99.90;;;;;;4916528;29;20242;-67
2022/04/04 04:45:41;;;;;;;2.65;2.45;;;3.20;99.90;;;;;;4915220;29;20555;-68
2022/04/04 04:48:08;;;;;;;4.32;3.92;;;3.30;99.90;;;;;;4915945;29;20576;-66
2022/04/04 04:50:36;;;;;;;6.93;3.60;;;3.30;99.90;;;;;;4905675;29;20302;-67
2022/04/04 04:53:04;;;;;;;3.50;3.30;;;3.30;99.90;;;;;;4916176;29;20203;-67
2022/04/04 04:55:31;;;;;;;4.05;3.72;;;3.30;99.90;;;;;;4897640;29;20219;-66
2022/04/04 04:57:58;;;;;;;3.33;3.20;;;3.30;99.90;;;;;;4897863;29;20780;-66
2022/04/04 05:00:26;;;;;;;3.50;3.00;;;3.40;99.90;;;;;;4905677;29;20207;-67
2022/04/04 05:05:35;;;;;;;5.13;4.15;;;3.40;99.90;;;;;;4905287;29;20218;-66
2022/04/04 05:08:01;;;;;;;4.00;3.28;;;3.40;99.90;;;;;;4924036;29;20225;-66
2022/04/04 05:10:30;;;;;;;5.03;4.55;;;3.40;99.90;;;;;;4907692;29;20214;-68
2022/04/04 05:12:57;;;;;;;3.67;3.47;;;3.40;99.90;;;;;;4916151;29;20293;-67
2022/04/04 05:15:24;;;;;;;3.75;3.45;;;3.40;99.90;;;;;;4915177;29;20298;-68
2022/04/04 05:17:52;;;;;;;5.20;4.55;;;3.40;99.90;;;;;;4913608;29;20778;-65
2022/04/04 05:20:18;;;;;;;4.57;4.28;;;3.50;99.90;;;;;;4913353;29;20230;-67
2022/04/04 05:22:45;;;;;;;5.00;4.47;;;3.50;99.90;;;;;;4914785;29;20331;-67
2022/04/04 05:25:12;;;;;;;6.30;5.70;;;3.50;99.90;;;;;;4915704;29;20218;-67
2022/04/04 05:27:41;;;;;;;5.57;5.00;;;3.60;99.90;;;;;;4915714;29;20349;-66
2022/04/04 05:30:09;;;;;;;4.90;4.47;;;3.60;99.90;;;;;;4914479;29;20211;-68
2022/04/04 05:32:36;;;;;;;4.18;3.88;;;3.60;99.90;;;;;;4914181;29;20214;-67
2022/04/04 05:35:05;;;;;;;7.55;5.28;;;3.60;99.90;;;;;;4896381;29;20203;-67
2022/04/04 05:37:32;;;;;;;8.10;4.50;;;3.60;99.90;;;;;;4906756;29;20237;-68
2022/04/04 05:39:59;;;;;;;6.75;4.50;;;3.70;99.90;;;;;;4910501;29;20210;-68
2022/04/04 05:42:26;;;;;;;5.93;5.32;;;3.70;99.90;;;;;;4915382;29;20226;-67
2022/04/04 05:44:54;;;;;;;6.88;5.45;;;3.80;99.90;;;;;;4897571;29;20219;-67
2022/04/04 05:47:20;;;;;;;5.55;5.07;;;3.80;99.90;;;;;;4901426;29;20314;-66
2022/04/04 05:49:48;;;;;;;8.48;5.60;;;3.80;99.90;;;;;;4911363;29;20217;-66
2022/04/04 05:52:15;;;;;;;6.05;5.65;;;3.90;99.90;;;;;;4915438;29;20258;-67
2022/04/04 05:54:54;;;;;;;8.18;5.72;;;3.90;99.90;;;;;;4900227;29;20250;-67
2022/04/04 05:57:21;;;;;;;5.35;4.85;;;4.00;99.90;;;;;;4898487;29;20294;-67
2022/04/04 05:59:48;;;;;;;7.78;7.10;;;4.00;99.90;;;;;;4913580;29;20656;-66
2022/04/04 06:02:16;;;;;;;7.30;6.60;;;4.10;99.90;;;;;;4920919;29;20242;-67
2022/04/04 06:04:42;;;;;;;5.72;5.32;;;4.10;99.90;;;;;;4907227;29;20263;-66
2022/04/04 06:07:09;;;;;;;7.35;5.85;;;4.20;99.90;;;;;;4915263;29;20656;-66
2022/04/04 06:09:36;;;;;;;5.93;5.43;;;4.20;99.90;;;;;;4913941;29;20206;-64
2022/04/04 06:12:03;;;;;;;7.18;5.80;;;4.20;99.90;;;;;;4914967;29;20286;-67
2022/04/04 06:14:30;;;;;;;6.15;5.00;;;4.30;99.90;;;;;;4904085;29;20214;-67
2022/04/04 06:16:56;;;;;;;6.78;6.13;;;4.30;99.90;;;;;;4897398;29;20207;-69
2022/04/04 06:19:25;;;;;;;9.27;6.25;;;4.50;99.90;;;;;;4910424;29;20266;-65
2022/04/04 06:21:52;;;;;;;6.43;5.93;;;4.60;99.90;;;;;;4909474;29;20223;-66
2022/04/04 06:24:19;;;;;;;6.75;5.97;;;4.60;99.90;;;;;;4909249;29;20210;-66
2022/04/04 06:26:46;;;;;;;8.20;6.40;;;4.60;99.90;;;;;;4913306;29;20203;-65
2022/04/04 06:29:13;;;;;;;6.80;6.20;;;4.60;99.90;;;;;;4914252;29;20202;-66
2022/04/04 06:31:40;;;;;;;7.13;6.43;;;4.60;99.90;;;;;;4914147;29;20245;-66
2022/04/04 06:34:08;;;;;;;7.03;6.20;;;4.60;99.90;;;;;;4914313;29;20262;-66
2022/04/04 06:36:37;;;;;;;6.63;5.95;;;4.70;99.90;;;;;;4913052;29;20241;-66
2022/04/04 06:39:04;;;;;;;6.95;6.32;;;4.70;99.90;;;;;;4904300;29;20214;-66
2022/04/04 06:41:31;;;;;;;8.02;6.70;;;4.70;99.90;;;;;;4914520;29;20333;-66
2022/04/04 06:43:58;;;;;;;8.25;7.00;;;4.80;99.90;;;;;;4916051;29;20405;-67
2022/04/04 06:46:25;;;;;;;12.45;6.82;;;4.80;99.90;;;;;;4915067;29;20353;-67
2022/04/04 06:48:52;;;;;;;9.77;7.43;;;4.80;99.90;;;;;;4921096;29;20286;-67
2022/04/04 06:51:19;;;;;;;10.00;6.50;;;4.80;99.90;;;;;;4918760;29;20230;-65
2022/04/04 06:53:47;;;;;;;10.00;7.25;;;4.80;99.90;;;;;;4912411;29;20242;-67
2022/04/04 06:56:15;;;;;;;8.70;7.43;;;4.80;99.90;;;;;;4893980;29;20701;-66
2022/04/04 06:58:42;;;;;;;10.63;7.43;;;4.90;99.90;;;;;;4893792;29;20215;-66
2022/04/04 07:01:09;;;;;;;7.60;6.90;;;4.90;99.90;;;;;;4897403;29;20243;-66
2022/04/04 07:03:35;;;;;;;10.05;6.32;;;4.90;99.90;;;;;;4909385;29;20301;-65
2022/04/04 07:06:02;;;;;;;7.88;6.47;;;4.90;99.90;;;;;;4918232;29;20206;-66
2022/04/04 07:08:29;;;;;;;9.32;7.25;;;4.90;99.90;;;;;;4917499;29;20234;-65
2022/04/04 07:10:57;;;;;;;9.63;8.63;;;4.90;99.90;;;;;;4915485;29;20265;-64
2022/04/04 07:13:23;;;;;;;9.98;8.90;;;4.80;99.90;;;;;;4906385;29;20207;-64
2022/04/04 07:15:50;;;;;;;9.02;7.00;;;4.90;99.90;;;;;;4903545;29;20266;-67
2022/04/04 07:18:18;;;;;;;8.30;7.50;;;4.80;99.90;;;;;;4910242;29;20254;-67
2022/04/04 07:20:45;;;;;;;11.55;10.13;;;4.80;99.90;;;;;;4916771;29;20273;-67
2022/04/04 07:23:13;;;;;;;8.43;7.65;;;4.90;99.90;;;;;;4916924;29;20233;-66
2022/04/04 07:25:40;;;;;;;8.93;7.55;;;4.80;99.90;;;;;;4917565;29;20680;-65
2022/04/04 07:28:08;;;;;;;10.00;8.57;;;4.80;99.90;;;;;;4917610;29;20282;-67
2022/04/04 07:30:36;;;;;;;6.85;6.25;;;4.70;99.90;;;;;;4916747;29;20301;-67
2022/04/04 07:33:04;;;;;;;10.15;7.85;;;4.70;99.90;;;;;;4917851;29;20207;-66
2022/04/04 07:35:31;;;;;;;9.10;8.25;;;4.70;99.90;;;;;;4916215;29;20216;-66
2022/04/04 07:37:58;;;;;;;8.77;8.07;;;4.70;99.90;;;;;;4915131;29;20207;-67
2022/04/04 07:40:25;;;;;;;8.80;8.07;;;4.60;99.90;;;;;;4912830;29;20238;-67
2022/04/04 07:42:52;;;;;;;9.98;8.50;;;4.60;99.90;;;;;;4917992;29;20230;-67
2022/04/04 07:45:20;;;;;;;7.38;6.78;;;4.60;99.90;;;;;;4899532;29;20255;-66
2022/04/04 07:47:49;;;;;;;10.50;8.93;;;4.60;99.90;;;;;;4910959;29;20211;-66
2022/04/04 07:50:16;;;;;;;10.57;9.48;;;4.60;99.90;;;;;;4915116;29;20293;-67
2022/04/04 07:52:43;;;;;;;11.75;8.55;;;4.70;99.90;;;;;;4913470;29;20250;-67
2022/04/04 07:55:11;;;;;;;12.70;9.55;;;4.70;99.90;;;;;;4898315;29;20237;-67
2022/04/04 07:57:38;;;;;;;10.40;9.30;;;4.70;99.90;;;;;;4915149;29;20205;-67
2022/04/04 08:00:07;;;;;;;12.98;9.98;;;4.60;99.90;;;;;;4916023;29;20731;-68
2022/04/04 08:02:35;;;;;;;12.35;11.05;;;4.70;99.90;;;;;;4915962;29;20246;-66
2022/04/04 08:05:03;;;;;;;15.90;9.75;;;4.60;99.90;;;;;;4907702;29;20691;-66
2022/04/04 08:07:29;;;;;;;10.57;9.48;;;4.60;99.90;;;;;;4909639;29;20215;-66
2022/04/04 08:09:56;;;;;;;10.30;9.30;;;4.60;99.90;;;;;;4920126;29;20217;-66
2022/04/04 08:12:26;;;;;;;14.45;11.15;;;4.60;99.90;;;;;;4926350;29;20254;-66
2022/04/04 08:14:52;;;;;;;16.63;11.20;;;4.60;99.90;;;;;;4913949;29;20215;-67
2022/04/04 08:17:19;;;;;;;14.27;10.85;;;4.60;99.90;;;;;;4916682;29;20211;-66
2022/04/04 08:19:48;;;;;;;10.73;9.70;;;4.50;99.90;;;;;;4908640;29;20651;-66
2022/04/04 08:22:14;;;;;;;9.93;9.02;;;4.50;99.90;;;;;;4916600;29;20253;-66
2022/04/04 08:24:41;;;;;;;11.98;9.43;;;4.50;99.90;;;;;;4916093;29;20575;-66
2022/04/04 08:27:09;;;;;;;15.07;11.63;;;4.50;99.90;;;;;;4915070;29;20207;-67
2022/04/04 08:29:36;;;;;;;14.93;11.50;;;4.50;99.90;;;;;;4901756;29;20742;-65
2022/04/04 08:32:03;;;;;;;13.55;12.15;;;4.50;99.90;;;;;;4915144;29;20230;-66
2022/04/04 08:34:30;;;;;;;8.80;8.00;;;4.50;99.90;;;;;;4913742;29;20210;-67
2022/04/04 08:36:58;;;;;;;12.80;11.00;;;4.50;99.90;;;;;;4915915;29;20254;-67
2022/04/04 08:39:25;;;;;;;14.18;10.63;;;4.50;99.90;;;;;;4897974;29;20211;-67
2022/04/04 08:41:56;;;;;;;18.02;11.23;;;4.50;99.90;;;;;;4913111;29;20253;-66
2022/04/04 08:44:22;;;;;;;10.93;9.73;;;4.50;99.90;;;;;;4915693;29;20274;-67
2022/04/04 08:46:50;;;;;;;12.43;10.55;;;4.50;99.90;;;;;;4914898;29;20210;-67
2022/04/04 08:49:16;;;;;;;14.95;11.95;;;4.50;99.90;;;;;;4921166;29;20679;-66
2022/04/04 08:51:43;;;;;;;11.20;10.05;;;4.50;99.90;;;;;;4921632;29;20266;-67
2022/04/04 08:54:11;;;;;;;14.82;11.95;;;4.50;99.90;;;;;;4924330;29;20206;-66
2022/04/04 08:56:38;;;;;;;12.35;11.10;;;4.50;99.90;;;;;;4914946;29;20217;-67
2022/04/04 08:59:05;;;;;;;12.82;11.45;;;4.50;99.90;;;;;;4903864;29;20225;-67
2022/04/04 09:01:32;;;;;;;11.80;10.32;;;4.50;99.90;;;;;;4898579;29;20329;-67
2022/04/04 09:04:14;;;;;;;11.07;9.93;;;4.50;99.90;;;;;;4913007;29;20230;-66
2022/04/04 09:06:48;;;;;;;10.57;9.30;;;4.40;99.90;;;;;;4907357;29;20211;-67
2022/04/04 09:09:25;;;;;;;12.48;10.82;;;4.50;99.90;;;;;;4911032;29;20221;-67
2022/04/04 09:11:53;;;;;;;13.27;10.43;;;4.40;99.90;;;;;;4915154;29;20253;-67
2022/04/04 09:14:22;;;;;;;10.68;9.68;;;4.40;99.90;;;;;;4912580;29;20218;-70
2022/04/04 09:16:55;;;;;;;6.70;6.15;;;4.40;99.90;;;;;;4913442;29;20234;-65
2022/04/04 09:19:29;;;;;;;11.00;9.85;;;4.40;99.90;;;;;;4915271;29;20227;-66
2022/04/04 09:21:56;;;;;;;8.93;8.02;;;4.40;99.90;;;;;;4913654;29;20328;-66
2022/04/04 09:24:43;;;;;;;7.65;6.90;;;4.40;99.90;;;;;;4914912;29;20230;-65
2022/04/04 09:27:13;;;;;;;11.65;9.13;;;4.40;99.90;;;;;;4914885;29;20202;-66
2022/04/04 09:29:45;;;;;;;9.05;8.15;;;4.40;99.90;;;;;;4911898;29;20207;-66
2022/04/04 09:32:15;;;;;;;11.25;10.25;;;4.40;99.90;;;;;;4914737;29;20238;-66
2022/04/04 09:35:01;;;;;;;11.70;9.90;;;4.30;99.90;;;;;;4906685;29;20217;-67
2022/04/04 09:37:31;;;;;;;10.52;8.50;;;4.30;99.90;;;;;;4913947;29;20209;-67
2022/04/04 09:40:21;;;;;;;9.10;8.32;;;4.20;99.90;;;;;;4914173;29;20550;-66
2022/04/04 09:42:59;;;;;;;11.70;10.63;;;4.10;99.90;;;;;;4907881;29;20684;-66
2022/04/04 09:45:28;;;;;;;12.13;10.02;;;4.10;99.90;;;;;;4912711;29;20654;-66
2022/04/04 09:47:57;;;;;;;11.15;10.02;;;4.10;99.90;;;;;;4910420;29;21185;-66
2022/04/04 09:50:37;;;;;;;11.40;10.20;;;4.10;99.90;;;;;;4914299;29;20270;-66
2022/04/04 09:53:04;;;;;;;8.70;7.10;;;4.20;99.90;;;;;;4914953;29;20207;-65
2022/04/04 09:55:33;;;;;;;10.05;8.63;;;4.20;99.90;;;;;;4915565;29;20222;-67
2022/04/04 09:58:03;;;;;;;10.93;9.80;;;4.20;99.90;;;;;;4921545;29;20217;-67
2022/04/04 10:00:30;;;;;;;13.43;10.15;;;4.20;99.90;;;;;;4915256;29;20237;-67
2022/04/04 10:02:59;;;;;;;9.80;8.43;;;4.00;99.90;;;;;;4917932;29;20221;-68
2022/04/04 10:05:26;;;;;;;10.02;9.07;;;4.00;99.90;;;;;;4918431;29;20380;-68
2022/04/04 10:07:56;;;;;;;10.85;9.75;;;4.00;99.90;;;;;;4914252;29;20206;-68
2022/04/04 10:10:26;;;;;;;11.00;9.70;;;4.00;99.90;;;;;;4912851;29;20361;-68
2022/04/04 10:12:54;;;;;;;14.05;9.32;;;4.00;99.90;;;;;;4913721;29;20268;-68
2022/04/04 10:15:22;;;;;;;11.32;10.23;;;4.10;99.90;;;;;;4913469;29;20665;-68
2022/04/04 10:17:50;;;;;;;20.10;11.38;;;4.10;99.90;;;;;;4910882;29;20206;-67
2022/04/04 10:20:17;;;;;;;13.40;10.20;;;4.10;99.90;;;;;;4904546;29;20219;-69
2022/04/04 10:22:45;;;;;;;13.98;11.43;;;4.00;99.90;;;;;;4912056;29;20269;-66
2022/04/04 10:25:14;;;;;;;13.35;11.98;;;4.10;99.90;;;;;;4926475;29;20222;-69
2022/04/04 10:27:43;;;;;;;10.48;9.38;;;4.10;99.90;;;;;;4908504;29;20583;-67
2022/04/04 10:30:12;;;;;;;13.65;12.25;;;4.10;99.90;;;;;;4918935;29;20783;-68
2022/04/04 10:32:50;;;;;;;12.52;9.52;;;4.00;99.90;;;;;;4919272;29;20252;-66
2022/04/04 10:35:21;;;;;;;14.82;13.05;;;4.00;99.90;;;;;;4910280;29;20321;-68
2022/04/04 10:37:48;;;;;;;11.77;10.52;;;4.00;99.90;;;;;;4916295;29;20300;-68
2022/04/04 10:40:23;;;;;;;10.48;9.40;;;4.10;99.90;;;;;;4914029;29;20210;-68
2022/04/04 10:43:03;;;;;;;10.45;9.50;;;4.10;99.90;;;;;;4912804;29;20304;-68
2022/04/04 10:45:31;;;;;;;14.50;13.00;;;4.00;99.90;;;;;;4917199;29;20294;-67
2022/04/04 10:48:06;;;;;;;13.10;10.75;;;4.00;99.90;;;;;;4922719;29;20233;-68
2022/04/04 10:50:34;;;;;;;12.98;11.57;;;4.10;99.90;;;;;;4915132;29;20209;-68
2022/04/04 10:53:02;;;;;;;13.35;11.73;;;4.10;99.90;;;;;;4920067;29;20206;-68
2022/04/04 10:55:49;;;;;;;15.75;12.68;;;4.10;99.90;;;;;;4925692;29;20656;-67
2022/04/04 10:58:25;;;;;;;15.27;12.95;;;4.10;99.90;;;;;;4919875;29;20544;-67
2022/04/04 11:01:03;;;;;;;14.45;12.23;;;4.10;99.90;;;;;;4913446;29;20308;-68
2022/04/04 11:03:35;;;;;;;12.93;11.68;;;4.10;99.90;;;;;;4912310;29;20225;-66
2022/04/04 11:09:03;;;;;;;12.77;11.45;;;4.20;99.90;;;;;;4914151;29;20201;-68
2022/04/04 11:11:48;;;;;;;13.98;10.88;;;4.20;99.90;;;;;;4917715;29;20230;-68
2022/04/04 11:14:16;;;;;;;12.48;11.05;;;4.20;99.90;;;;;;4919922;29;20234;-69
2022/04/04 11:17:41;;;;;;;13.73;11.13;;;4.20;99.90;;;;;;4921810;29;20206;-67
2022/04/04 11:20:33;;;;;;;12.65;11.35;;;4.20;99.90;;;;;;4906500;29;20215;-65
2022/04/04 11:23:02;;;;;;;11.70;10.50;;;4.20;99.90;;;;;;4912617;29;20210;-67
2022/04/04 11:25:33;;;;;;;12.68;11.35;;;4.30;99.90;;;;;;4918166;29;20679;-67
2022/04/04 11:28:01;;;;;;;9.82;8.85;;;4.30;99.90;;;;;;4926418;29;20209;-66
2022/04/04 11:30:28;;;;;;;13.85;12.15;;;4.30;99.90;;;;;;4920241;29;20656;-69
2022/04/04 11:32:57;;;;;;;11.25;9.70;;;4.30;99.90;;;;;;4915311;29;20242;-68
2022/04/04 11:35:30;;;;;;;13.18;11.40;;;4.30;99.90;;;;;;4920576;29;20207;-68
2022/04/04 11:37:59;;;;;;;11.50;10.10;;;4.30;99.90;;;;;;4910051;29;20617;-67
2022/04/04 11:40:29;;;;;;;14.10;10.30;;;4.40;99.90;;;;;;4914799;29;20215;-69
2022/04/04 11:42:57;;;;;;;12.07;10.88;;;4.40;99.90;;;;;;4912654;29;20655;-68
2022/04/04 11:45:26;;;;;;;7.97;7.10;;;4.40;99.90;;;;;;4914104;29;20237;-68
2022/04/04 11:47:55;;;;;;;14.07;8.65;;;4.50;99.90;;;;;;4921701;29;20233;-66
2022/04/04 11:50:25;;;;;;;10.20;9.10;;;4.50;99.90;;;;;;4921789;29;20257;-68
2022/04/04 11:52:57;;;;;;;12.02;10.45;;;4.50;99.90;;;;;;4924299;29;20293;-67
2022/04/04 11:55:27;;;;;;;10.50;8.50;;;4.50;99.90;;;;;;4917562;29;20207;-68
2022/04/04 11:57:57;;;;;;;12.10;9.88;;;4.50;99.90;;;;;;4919915;29;20214;-67
2022/04/04 12:00:26;;;;;;;10.32;9.32;;;4.50;99.90;;;;;;4917714;29;20585;-67
2022/04/04 12:02:54;;;;;;;7.65;6.63;;;4.60;99.90;;;;;;4919844;29;20206;-67
2022/04/04 12:05:23;;;;;;;10.48;9.63;;;4.60;99.90;;;;;;4920598;29;20634;-67
2022/04/04 12:07:51;;;;;;;11.65;10.43;;;4.70;99.90;;;;;;4928163;29;20210;-68
2022/04/04 12:10:31;;;;;;;8.77;7.88;;;4.70;99.90;;;;;;4921920;29;20207;-66
2022/04/04 12:13:00;;;;;;;8.68;7.88;;;4.60;99.90;;;;;;4918624;29;20628;-67
2022/04/04 12:15:28;;;;;;;8.95;8.05;;;4.60;99.90;;;;;;4918984;29;20301;-67
2022/04/04 12:17:54;;;;;;;9.57;8.77;;;4.60;99.90;;;;;;4924091;29;20214;-67
2022/04/04 12:20:22;;;;;;;9.73;8.70;;;4.60;99.90;;;;;;4921093;29;20211;-66
2022/04/04 12:25:35;;;;;;;10.40;9.40;;;4.60;99.90;;;;;;4920361;29;20698;-67
2022/04/04 12:28:02;;;;;;;13.75;10.05;;;4.60;99.90;;;;;;4919873;29;20211;-68
2022/04/04 12:30:30;;;;;;;9.38;8.27;;;4.70;99.90;;;;;;4908979;29;20215;-68
2022/04/04 12:33:10;;;;;;;10.05;8.73;;;4.70;99.90;;;;;;4929917;29;20694;-68
2022/04/04 12:35:42;;;;;;;7.88;7.07;;;4.80;99.90;;;;;;4934544;23;20222;-69
2022/04/04 12:38:09;;;;;;;9.73;8.93;;;4.80;99.90;;;;;;4913026;29;20234;-68
2022/04/04 12:40:41;;;;;;;10.00;8.85;;;4.90;99.90;;;;;;4916045;29;20298;-69
2022/04/04 12:43:10;;;;;;;6.78;6.13;;;4.90;99.90;;;;;;4916831;29;20219;-68
2022/04/04 12:45:47;;;;;;;10.57;8.85;;;4.90;99.90;;;;;;4927276;29;20668;-69
2022/04/04 12:48:14;;;;;;;9.25;8.20;;;4.90;99.90;;;;;;4935655;29;20280;-69
2022/04/04 12:50:42;;;;;;;7.68;7.00;;;5.00;99.90;;;;;;4934173;29;20214;-68
2022/04/04 12:53:12;;;;;;;5.93;5.43;;;5.00;99.90;;;;;;4935552;29;20317;-68
2022/04/04 12:55:43;;;;;;;11.43;8.32;;;5.10;99.90;;;;;;4927245;29;20585;-68
2022/04/04 12:58:18;;;;;;;10.55;7.10;;;5.10;99.90;;;;;;4935188;29;20352;-69
2022/04/04 13:00:46;;;;;;;5.03;4.60;;;5.10;99.90;;;;;;4934160;29;20542;-69
2022/04/04 13:03:25;;;;;;;8.77;7.95;;;5.20;99.90;;;;;;4935508;29;20232;-69
2022/04/04 13:05:53;;;;;;;7.55;6.97;;;5.20;99.90;;;;;;4934208;29;20285;-68
2022/04/04 13:08:22;;;;;;;7.95;7.28;;;5.30;99.90;;;;;;4933245;29;20647;-68
2022/04/04 13:11:07;;;;;;;8.85;7.65;;;5.30;99.90;;;;;;4930117;29;20205;-68
2022/04/04 13:13:35;;;;;;;9.07;8.20;;;5.30;99.90;;;;;;4922267;29;20205;-69
2022/04/04 13:16:03;;;;;;;7.35;6.78;;;5.30;99.90;;;;;;4928602;29;20257;-68
2022/04/04 13:18:30;;;;;;;8.15;6.57;;;5.40;99.90;;;;;;4931056;29;20218;-68
2022/04/04 13:20:57;;;;;;;6.82;6.38;;;5.40;99.90;;;;;;4921638;29;20217;-68
2022/04/04 13:23:23;;;;;;;4.97;4.63;;;5.40;99.90;;;;;;4932523;29;20233;-68
2022/04/04 13:25:51;;;;;;;7.00;6.18;;;5.40;99.90;;;;;;4934743;29;20273;-68
2022/04/04 13:28:19;;;;;;;7.43;6.13;;;5.50;99.90;;;;;;4932807;29;20301;-68
2022/04/04 13:30:46;;;;;;;7.80;7.13;;;5.50;99.90;;;;;;4928985;29;20289;-68
2022/04/04 13:33:13;;;;;;;5.95;5.20;;;5.50;99.90;;;;;;4934909;29;20301;-68
2022/04/04 13:35:40;;;;;;;7.68;6.88;;;5.60;99.90;;;;;;4933092;29;20236;-68
2022/04/04 13:38:07;;;;;;;5.60;5.20;;;5.60;99.90;;;;;;4934871;29;20202;-67
2022/04/04 13:40:34;;;;;;;5.57;5.07;;;5.70;99.90;;;;;;4934455;29;20312;-67
2022/04/04 13:43:01;;;;;;;8.10;7.40;;;5.70;99.90;;;;;;4934832;29;20214;-67
2022/04/04 13:45:29;;;;;;;7.00;6.32;;;5.70;99.90;;;;;;4934209;29;20225;-67
2022/04/04 13:47:55;;;;;;;6.65;6.05;;;5.70;99.90;;;;;;4934409;29;20206;-67
2022/04/04 13:50:22;;;;;;;13.90;8.15;;;5.70;99.90;;;;;;4931557;29;20282;-68
2022/04/04 13:52:49;;;;;;;14.40;8.40;;;5.70;99.90;;;;;;4936267;29;20213;-67
2022/04/04 13:55:16;;;;;;;8.65;5.82;;;5.70;99.90;;;;;;4937125;29;20217;-67
2022/04/04 13:57:42;;;;;;;10.63;6.63;;;5.70;99.90;;;;;;4934942;29;20198;-68
2022/04/04 14:00:11;;;;;;;4.97;4.63;;;5.70;99.90;;;;;;4933660;29;20209;-67
2022/04/04 14:02:40;;;;;;;6.53;6.00;;;5.70;99.90;;;;;;4934131;29;20285;-68
2022/04/04 14:05:11;;;;;;;6.30;5.63;;;5.70;99.90;;;;;;4933926;29;20246;-68
2022/04/04 14:07:38;;;;;;;8.07;5.22;;;5.80;99.90;;;;;;4927703;29;20221;-68
2022/04/04 14:10:06;;;;;;;5.38;4.88;;;5.80;99.90;;;;;;4934476;29;20217;-68
2022/04/04 14:12:35;;;;;;;6.75;6.20;;;5.80;99.90;;;;;;4929893;29;20202;-68
2022/04/04 14:15:02;;;;;;;7.22;6.47;;;5.80;99.90;;;;;;4933012;29;20222;-68
2022/04/04 14:17:29;;;;;;;9.95;5.53;;;5.90;99.90;;;;;;4931791;29;20225;-68
2022/04/04 14:19:58;;;;;;;7.53;6.18;;;5.90;99.90;;;;;;4931317;29;20206;-68
2022/04/04 14:22:25;;;;;;;4.53;4.10;;;6.00;99.90;;;;;;4933699;29;20276;-68
2022/04/04 14:24:54;;;;;;;3.38;3.10;;;5.90;99.90;;;;;;4933361;29;20237;-69
2022/04/04 14:27:21;;;;;;;4.75;4.38;;;5.90;99.90;;;;;;4932392;29;20209;-68
2022/04/04 14:29:49;;;;;;;5.40;5.05;;;6.00;99.90;;;;;;4926159;29;20206;-68
2022/04/04 14:32:16;;;;;;;4.75;4.45;;;6.00;99.90;;;;;;4932152;29;20222;-69
2022/04/04 14:34:43;;;;;;;4.95;4.57;;;6.00;99.90;;;;;;4932906;29;20706;-68
2022/04/04 14:37:13;;;;;;;4.90;4.60;;;6.00;99.90;;;;;;4927012;29;21131;-68
2022/04/04 14:39:40;;;;;;;5.57;4.55;;;6.00;99.90;;;;;;4927089;29;20214;-67
2022/04/04 14:42:08;;;;;;;4.50;4.20;;;6.00;99.90;;;;;;4933758;29;20265;-69
2022/04/04 14:44:35;;;;;;;3.88;3.58;;;6.00;99.90;;;;;;4933703;29;20289;-67
2022/04/04 14:47:02;;;;;;;4.60;4.13;;;6.00;99.90;;;;;;4932126;29;20202;-70
2022/04/04 14:49:29;;;;;;;4.00;3.88;;;6.00;99.90;;;;;;4930424;29;20213;-68
2022/04/04 14:51:56;;;;;;;5.35;4.80;;;6.10;99.90;;;;;;4928492;29;20225;-68
2022/04/04 14:54:24;;;;;;;5.60;5.30;;;6.10;99.90;;;;;;4929679;29;20206;-69
2022/04/04 14:56:52;;;;;;;4.65;4.35;;;6.10;99.90;;;;;;4928423;29;20682;-68
2022/04/04 14:59:20;;;;;;;5.53;5.13;;;6.10;99.90;;;;;;4926371;29;20240;-68
2022/04/04 15:01:47;;;;;;;4.65;4.32;;;6.10;99.90;;;;;;4926731;29;20213;-68
2022/04/04 15:04:13;;;;;;;4.35;3.70;;;6.10;99.90;;;;;;4936928;29;20210;-68
2022/04/04 15:06:40;;;;;;;4.97;4.68;;;6.10;99.90;;;;;;4927084;29;20242;-69
2022/04/04 15:09:09;;;;;;;4.22;3.92;;;6.10;99.90;;;;;;4926989;29;20545;-69
2022/04/04 15:11:37;;;;;;;4.40;4.15;;;6.10;99.90;;;;;;4926369;29;20584;-69
2022/04/04 15:14:04;;;;;;;5.53;5.13;;;6.20;99.90;;;;;;4920902;29;20274;-69
2022/04/04 15:16:31;;;;;;;6.00;4.32;;;6.20;99.90;;;;;;4917245;29;20254;-68
2022/04/04 15:18:58;;;;;;;5.13;4.72;;;6.30;99.90;;;;;;4925719;29;20226;-69
2022/04/04 15:21:25;;;;;;;4.00;3.80;;;6.30;99.90;;;;;;4927393;29;20239;-69
2022/04/04 15:23:52;;;;;;;4.20;4.00;;;6.30;99.90;;;;;;4928789;29;20262;-68
2022/04/04 15:26:19;;;;;;;3.95;3.65;;;6.30;99.90;;;;;;4923133;29;20240;-69
2022/04/04 15:28:48;;;;;;;3.20;2.97;;;6.40;99.90;;;;;;4926439;29;20277;-69
2022/04/04 15:31:15;;;;;;;4.68;4.22;;;6.40;99.90;;;;;;4938887;29;20214;-69
2022/04/04 15:33:43;;;;;;;4.10;3.80;;;6.40;99.90;;;;;;4932899;29;20210;-68
2022/04/04 15:36:16;;;;;;;4.93;4.55;;;6.40;99.90;;;;;;4927829;29;20234;-68
2022/04/04 15:38:43;;;;;;;3.92;3.63;;;6.40;99.90;;;;;;4924685;29;20252;-68
2022/04/04 15:41:09;;;;;;;4.47;4.20;;;6.40;99.90;;;;;;4928695;29;20218;-68
2022/04/04 15:43:38;;;;;;;3.92;3.72;;;6.40;99.90;;;;;;4935299;29;20597;-68
2022/04/04 15:46:07;;;;;;;2.83;2.72;;;6.50;99.90;;;;;;4931455;29;20660;-68
2022/04/04 15:48:33;;;;;;;3.25;3.10;;;6.50;99.90;;;;;;4927323;29;20211;-68
2022/04/04 15:51:00;;;;;;;3.30;3.05;;;6.50;99.90;;;;;;4926986;29;20218;-68
2022/04/04 15:53:27;;;;;;;3.88;3.58;;;6.50;99.90;;;;;;4930670;29;20206;-68
2022/04/04 15:55:53;;;;;;;4.00;3.80;;;6.60;99.90;;;;;;4929435;29;20245;-68
2022/04/04 15:58:20;;;;;;;4.03;3.70;;;6.60;99.90;;;;;;4923536;29;20246;-68
2022/04/04 16:00:47;;;;;;;3.60;3.38;;;6.60;99.90;;;;;;4926676;29;20206;-68
2022/04/04 16:03:15;;;;;;;3.45;3.25;;;6.60;99.90;;;;;;4936499;29;20209;-68
2022/04/04 16:05:42;;;;;;;3.08;2.97;;;6.60;99.90;;;;;;4932272;29;20280;-67
2022/04/04 16:08:08;;;;;;;9.20;3.65;;;6.60;99.90;;;;;;4935139;28;20210;-69
2022/04/04 16:10:35;;;;;;;4.03;3.65;;;6.60;99.90;;;;;;4933948;29;20304;-68
2022/04/04 16:13:02;;;;;;;3.17;3.00;;;6.60;99.90;;;;;;4935198;29;20209;-68
2022/04/04 16:15:28;;;;;;;2.78;2.70;;;6.60;99.90;;;;;;4928666;29;20229;-68
2022/04/04 16:17:55;;;;;;;2.65;2.55;;;6.70;99.90;;;;;;4933800;29;20210;-69
2022/04/04 16:20:23;;;;;;;3.40;3.30;;;6.70;99.90;;;;;;4930923;29;20592;-69
2022/04/04 16:22:50;;;;;;;2.55;2.45;;;6.70;99.90;;;;;;4923276;29;20213;-68
2022/04/04 16:25:17;;;;;;;3.83;3.65;;;6.70;99.90;;;;;;4926875;29;20238;-68
2022/04/04 16:27:44;;;;;;;3.03;2.92;;;6.80;99.90;;;;;;4928316;29;20528;-68
2022/04/04 16:30:11;;;;;;;3.85;3.58;;;6.80;99.90;;;;;;4932825;29;20245;-69
2022/04/04 16:32:38;;;;;;;2.38;2.28;;;6.90;99.90;;;;;;4926825;29;20573;-69
2022/04/04 16:35:06;;;;;;;3.22;3.13;;;6.90;99.90;;;;;;4925726;29;20607;-69
2022/04/04 16:37:34;;;;;;;2.38;2.22;;;6.90;99.90;;;;;;4927284;29;20202;-68
2022/04/04 16:40:01;;;;;;;3.22;3.00;;;7.00;99.90;;;;;;4929415;29;20225;-68
2022/04/04 16:42:30;;;;;;;2.67;2.58;;;7.00;99.90;;;;;;4925364;29;20205;-69
2022/04/04 16:44:59;;;;;;;2.20;2.20;;;7.00;99.90;;;;;;4927973;29;20248;-69
2022/04/04 16:47:26;;;;;;;2.22;2.13;;;6.90;99.90;;;;;;4931886;29;20214;-69
2022/04/04 16:49:53;;;;;;;2.40;2.30;;;7.00;99.90;;;;;;4929652;29;20273;-69
2022/04/04 16:52:20;;;;;;;2.42;2.35;;;6.90;99.90;;;;;;4925565;29;20297;-68
2022/04/04 16:54:48;;;;;;;2.70;2.60;;;6.90;99.90;;;;;;4926817;29;20226;-69
2022/04/04 16:57:17;;;;;;;2.00;1.95;;;6.90;99.90;;;;;;4927496;29;20305;-69
2022/04/04 16:59:44;;;;;;;3.80;3.05;;;6.90;99.90;;;;;;4930271;29;20210;-69
2022/04/04 17:02:10;;;;;;;2.60;2.45;;;6.90;99.90;;;;;;4932133;29;20221;-68
2022/04/04 17:04:37;;;;;;;2.60;2.50;;;7.00;99.90;;;;;;4931204;29;20233;-70
2022/04/04 17:07:04;;;;;;;3.20;2.90;;;6.90;99.90;;;;;;4932706;29;20230;-69